Time;durP1;ratioP1;P1;durP2;ratioP2;P2;SDS_P1;SDS_P2;PMS_P1;PMS_P2;Temp;Humidity;BMP_temperature;BMP_pressure;BME280_temperature;BME280_humidity;BME280_pressure;Samples;Min_cycle;Max_cycle;Signal;HPM_P1;HPM_P2
2023/01/03 00:01:42;;;;;;;;;;;;;;;5.97;100.00;102499.84;5071492;28;19916;-66
2023/01/03 00:04:07;;;;;;;;;;;;;;;5.87;100.00;102490.88;5084421;28;19923;-66
2023/01/03 00:06:34;;;;;;;;;;;;;;;5.79;100.00;102490.84;5082820;28;19931;-66
2023/01/03 00:09:00;;;;;;;;;;;;;;;5.73;100.00;102485.00;5086131;28;19944;-66
2023/01/03 00:14:17;;;;;;;;;;;;;;;5.62;100.00;102485.25;5044081;28;19935;-66
2023/01/03 00:16:43;;;;;;;;;;;;;;;5.55;100.00;102489.63;5083979;28;20004;-66
2023/01/03 00:19:09;;;;;;;;;;;;;;;5.48;100.00;102485.81;5067991;28;19974;-66
2023/01/03 00:21:35;;;;;;;;;;;;;;;5.48;100.00;102488.56;5089830;28;20325;-66
2023/01/03 00:24:00;;;;;;;;;;;;;;;5.38;100.00;102493.22;5088359;28;19922;-66
2023/01/03 00:26:26;;;;;;;;;;;;;;;5.32;100.00;102485.66;5071176;28;19924;-66
2023/01/03 00:28:51;;;;;;;;;;;;;;;5.27;100.00;102491.59;5087845;28;19922;-66
2023/01/03 00:31:16;;;;;;;;;;;;;;;5.20;100.00;102493.22;5090429;28;19983;-65
2023/01/03 00:33:41;;;;;;;;;;;;;;;5.16;100.00;102489.06;5089273;28;20359;-66
2023/01/03 00:36:07;;;;;;;;;;;;;;;5.10;100.00;102485.09;5079302;28;19921;-66
2023/01/03 00:38:33;;;;;;;;;;;;;;;5.07;100.00;102487.28;5068880;28;20086;-67
2023/01/03 00:41:02;;;;;;;;;;;;;;;5.02;100.00;102489.59;5069886;28;19920;-66
2023/01/03 00:43:27;;;;;;;;;;;;;;;4.98;100.00;102494.53;5069943;28;19966;-66
2023/01/03 00:45:53;;;;;;;;;;;;;;;4.98;100.00;102494.53;5086594;28;20359;-66
2023/01/03 00:48:18;;;;;;;;;;;;;;;4.96;100.00;102501.97;5089498;28;19920;-65
2023/01/03 00:50:43;;;;;;;;;;;;;;;4.91;100.00;102499.69;5088999;28;19963;-66
2023/01/03 00:53:08;;;;;;;;;;;;;;;4.87;100.00;102489.31;5055442;28;20355;-66
2023/01/03 00:55:34;;;;;;;;;;;;;;;4.86;100.00;102501.19;5082037;28;19920;-66
2023/01/03 00:57:59;;;;;;;;;;;;;;;4.82;100.00;102494.34;5071175;28;20378;-65
2023/01/03 01:00:24;;;;;;;;;;;;;;;4.77;100.00;102502.13;5070049;28;19970;-66
2023/01/03 01:02:51;;;;;;;;;;;;;;;4.75;100.00;102504.13;5081735;28;20583;-66
2023/01/03 01:05:17;;;;;;;;;;;;;;;4.69;100.00;102517.31;5079957;28;19921;-65
2023/01/03 01:07:42;;;;;;;;;;;;;;;4.64;100.00;102513.34;5078325;28;19920;-66
2023/01/03 01:10:07;;;;;;;;;;;;;;;4.59;100.00;102515.66;5085425;28;20015;-66
2023/01/03 01:12:32;;;;;;;;;;;;;;;4.54;100.00;102513.38;5069876;28;19921;-66
2023/01/03 01:14:57;;;;;;;;;;;;;;;4.52;100.00;102520.00;5078081;28;19920;-67
2023/01/03 01:17:23;;;;;;;;;;;;;;;4.48;100.00;102518.56;5077141;28;19931;-66
2023/01/03 01:19:48;;;;;;;;;;;;;;;4.43;100.00;102519.03;5084011;28;20003;-66
2023/01/03 01:22:13;;;;;;;;;;;;;;;4.43;100.00;102528.03;5087378;28;20282;-66
2023/01/03 01:24:39;;;;;;;;;;;;;;;4.45;100.00;102532.47;5086908;28;20061;-66
2023/01/03 01:27:04;;;;;;;;;;;;;;;4.48;100.00;102535.75;5088534;28;19920;-66
2023/01/03 01:29:29;;;;;;;;;;;;;;;4.48;100.00;102524.03;5089461;28;19920;-66
2023/01/03 01:31:54;;;;;;;;;;;;;;;4.44;100.00;102542.50;5082047;28;20363;-66
2023/01/03 01:34:19;;;;;;;;;;;;;;;4.41;100.00;102545.53;5077482;28;19962;-67
2023/01/03 01:36:45;;;;;;;;;;;;;;;4.37;100.00;102546.84;5075651;28;19974;-65
2023/01/03 01:39:12;;;;;;;;;;;;;;;4.30;100.00;102548.41;5084358;28;20267;-66
2023/01/03 01:44:40;;;;;;;;;;;;;;;4.18;100.00;102536.00;5069240;28;19927;-66
2023/01/03 01:47:24;;;;;;;;;;;;;;;4.12;100.00;102546.47;5069097;28;20079;-66
2023/01/03 01:49:51;;;;;;;;;;;;;;;4.08;100.00;102553.19;5073634;28;19936;-67
2023/01/03 01:52:18;;;;;;;;;;;;;;;4.03;100.00;102552.78;5085810;28;19935;-67
2023/01/03 01:54:44;;;;;;;;;;;;;;;3.98;100.00;102565.09;5073978;28;19927;-67
2023/01/03 01:57:14;;;;;;;;;;;;;;;3.94;100.00;102569.09;5060786;28;19920;-67
2023/01/03 01:59:39;;;;;;;;;;;;;;;3.90;100.00;102572.13;5068078;28;19917;-66
2023/01/03 02:02:05;;;;;;;;;;;;;;;3.89;100.00;102577.69;5075201;28;20185;-68
2023/01/03 02:04:32;;;;;;;;;;;;;;;3.86;100.00;102580.72;5077046;28;19920;-68
2023/01/03 02:06:58;;;;;;;;;;;;;;;3.84;100.00;102574.53;5069335;28;19932;-66
2023/01/03 02:15:19;;;;;;;;;;;;;;;3.74;100.00;102573.69;5039680;28;19927;-66
2023/01/03 02:18:03;;;;;;;;;;;;;;;3.69;100.00;102565.97;5045947;28;19955;-66
2023/01/03 02:20:37;;;;;;;;;;;;;;;3.62;100.00;102576.56;5033588;28;20607;-66
2023/01/03 02:23:03;;;;;;;;;;;;;;;3.53;100.00;102577.41;5046135;28;19927;-66
2023/01/03 02:25:56;;;;;;;;;;;;;;;3.45;100.00;102566.41;5045999;28;19925;-66
2023/01/03 02:28:21;;;;;;;;;;;;;;;3.37;100.00;102577.97;5046757;28;19917;-66
2023/01/03 02:30:53;;;;;;;;;;;;;;;3.26;100.00;102569.94;5046779;28;19927;-65
2023/01/03 02:33:29;;;;;;;;;;;;;;;3.22;100.00;102568.50;5045475;28;19920;-66
2023/01/03 02:36:03;;;;;;;;;;;;;;;3.21;100.00;102576.81;5038143;28;19920;-67
2023/01/03 02:38:31;;;;;;;;;;;;;;;3.21;100.00;102566.81;5072774;28;19999;-66
2023/01/03 02:41:04;;;;;;;;;;;;;;;3.21;100.00;102565.94;5045607;28;19925;-66
2023/01/03 02:43:37;;;;;;;;;;;;;;;3.23;100.00;102572.06;5046139;28;19944;-66
2023/01/03 02:46:18;;;;;;;;;;;;;;;3.21;100.00;102566.81;5047602;28;19917;-65
2023/01/03 02:48:43;;;;;;;;;;;;;;;3.22;100.00;102567.66;5045349;28;20007;-67
2023/01/03 02:51:34;;;;;;;;;;;;;;;3.20;100.00;102572.38;5046409;28;20011;-66
2023/01/03 02:54:01;;;;;;;;;;;;;;;3.20;100.00;102566.94;5033765;28;19917;-66
2023/01/03 02:56:29;;;;;;;;;;;;;;;3.18;100.00;102571.66;5046521;28;19924;-66
2023/01/03 02:58:59;;;;;;;;;;;;;;;3.19;100.00;102565.22;5045373;28;19929;-66
2023/01/03 03:01:26;;;;;;;;;;;;;;;3.19;100.00;102573.34;5046847;28;19924;-66
2023/01/03 03:03:52;;;;;;;;;;;;;;;3.20;100.00;102569.66;5044852;28;20378;-66
2023/01/03 03:06:22;;;;;;;;;;;;;;;3.15;100.00;102566.50;5079334;28;19916;-66
2023/01/03 03:08:48;;;;;;;;;;;;;;;3.13;100.00;102564.78;5044477;28;20019;-66
2023/01/03 03:14:11;;;;;;;;;;;;;;;3.10;100.00;102575.94;5046368;28;19931;-67
2023/01/03 03:16:46;;;;;;;;;;;;;;;3.10;100.00;102569.66;5047217;28;19912;-66
2023/01/03 03:25:22;;;;;;;;;;;;;;;3.07;100.00;102570.75;5044525;28;19959;-66
2023/01/03 03:30:35;;;;;;;;;;;;;;;3.05;100.00;102569.19;5046254;28;20390;-67
2023/01/03 03:33:04;;;;;;;;;;;;;;;3.04;100.00;102572.88;5046251;28;19924;-67
2023/01/03 03:35:31;;;;;;;;;;;;;;;3.09;100.00;102563.34;5047015;28;19999;-66
2023/01/03 03:37:57;;;;;;;;;;;;;;;3.04;100.00;102571.06;5045422;28;19921;-66
2023/01/03 03:46:15;;;;;;;;;;;;;;;3.05;100.00;102561.91;5032957;28;19931;-66
2023/01/03 03:51:26;;;;;;;;;;;;;;;3.01;100.00;102568.63;5045706;28;19943;-67
2023/01/03 03:53:52;;;;;;;;;;;;;;;3.01;100.00;102571.31;5044730;28;19940;-65
2023/01/03 03:56:20;;;;;;;;;;;;;;;2.98;100.00;102570.75;5048206;28;20363;-67
2023/01/03 03:58:48;;;;;;;;;;;;;;;2.99;100.00;102567.91;5042698;28;19927;-66
2023/01/03 04:01:15;;;;;;;;;;;;;;;2.99;100.00;102573.34;5039998;28;20562;-67
2023/01/03 04:03:41;;;;;;;;;;;;;;;2.97;100.00;102575.31;5049394;28;19935;-66
2023/01/03 04:06:12;;;;;;;;;;;;;;;2.97;100.00;102571.75;5050018;28;19921;-66
2023/01/03 04:08:38;;;;;;;;;;;;;;;2.96;100.00;102573.59;5047586;28;19921;-66
2023/01/03 04:11:06;;;;;;;;;;;;;;;2.97;100.00;102578.03;5049019;28;19966;-66
2023/01/03 04:13:32;;;;;;;;;;;;;;;2.97;100.00;102582.59;5049827;28;19917;-66
2023/01/03 04:15:57;;;;;;;;;;;;;;;3.01;100.00;102582.19;5049134;28;20013;-66
2023/01/03 04:18:22;;;;;;;;;;;;;;;2.97;100.00;102571.75;5047761;28;19925;-66
2023/01/03 04:20:47;;;;;;;;;;;;;;;2.99;100.00;102573.34;5049286;28;20011;-66
2023/01/03 04:23:12;;;;;;;;;;;;;;;2.98;100.00;102570.75;5048301;28;19948;-66
2023/01/03 04:25:38;;;;;;;;;;;;;;;3.00;100.00;102569.63;5049439;28;19927;-67
2023/01/03 04:28:03;;;;;;;;;;;;;;;3.02;100.00;102566.75;5049242;28;19921;-66
2023/01/03 04:30:28;;;;;;;;;;;;;;;3.02;100.00;102574.91;5049556;28;20287;-66
2023/01/03 04:32:53;;;;;;;;;;;;;;;3.01;100.00;102576.75;5048742;28;19952;-67
2023/01/03 04:35:18;;;;;;;;;;;;;;;2.99;100.00;102575.16;5048650;28;19917;-67
2023/01/03 04:37:44;;;;;;;;;;;;;;;2.97;100.00;102580.75;5047055;28;19921;-66
2023/01/03 04:40:09;;;;;;;;;;;;;;;2.94;100.00;102581.03;5048218;28;19921;-66
2023/01/03 04:45:18;;;;;;;;;;;;;;;2.90;100.00;102584.16;5048771;28;19928;-66
2023/01/03 04:47:44;;;;;;;;;;;;;;;2.89;100.00;102582.41;5048010;28;19921;-66
2023/01/03 04:50:09;;;;;;;;;;;;;;;2.89;100.00;102585.13;5029230;28;19980;-66
2023/01/03 04:52:34;;;;;;;;;;;;;;;2.87;100.00;102574.41;5043665;28;19924;-67
2023/01/03 04:54:59;;;;;;;;;;;;;;;2.87;100.00;102574.41;5047418;28;20307;-67
2023/01/03 04:57:24;;;;;;;;;;;;;;;2.89;100.00;102580.59;5079438;28;19921;-67
2023/01/03 04:59:50;;;;;;;;;;;;;;;2.94;100.00;102586.47;5063505;28;19921;-66
2023/01/03 05:02:15;;;;;;;;;;;;;;;2.96;100.00;102573.59;5048548;28;20246;-67
2023/01/03 05:04:40;;;;;;;;;;;;;;;3.01;100.00;102578.63;5048344;28;20274;-67
2023/01/03 05:07:05;;;;;;;;;;;;;;;3.05;100.00;102582.78;5048138;28;20421;-66
2023/01/03 05:09:30;;;;;;;;;;;;;;;3.09;100.00;102576.03;5046899;28;19921;-67
2023/01/03 05:11:56;;;;;;;;;;;;;;;3.11;100.00;102583.06;5047971;28;19948;-66
2023/01/03 05:14:21;;;;;;;;;;;;;;;3.16;100.00;102579.09;5079104;28;19921;-66
2023/01/03 05:16:46;;;;;;;;;;;;;;;3.15;100.00;102580.09;5062037;28;19921;-66
2023/01/03 05:19:11;;;;;;;;;;;;;;;3.17;100.00;102569.94;5048198;28;19920;-66
2023/01/03 05:27:05;;;;;;;;;;;;;;;3.22;100.00;102559.50;5047608;28;20286;-66
2023/01/03 05:29:31;;;;;;;;;;;;;;;3.20;100.00;102566.94;5047825;28;19921;-66
2023/01/03 05:31:56;;;;;;;;;;;;;;;3.18;100.00;102567.06;5035596;28;19925;-66
2023/01/03 05:34:21;;;;;;;;;;;;;;;3.13;100.00;102570.19;5036313;28;19921;-66
2023/01/03 05:36:47;;;;;;;;;;;;;;;3.04;100.00;102565.63;5043066;28;20342;-66
2023/01/03 05:39:12;;;;;;;;;;;;;;;2.94;100.00;102563.88;5045519;28;20011;-66
2023/01/03 05:44:21;;;;;;;;;;;;;;;2.79;100.00;102558.84;5039801;28;20224;-66
2023/01/03 05:46:47;;;;;;;;;;;;;;;2.76;100.00;102560.97;5046578;28;19921;-66
2023/01/03 05:49:12;;;;;;;;;;;;;;;2.75;100.00;102561.97;5046852;28;19921;-66
2023/01/03 05:51:37;;;;;;;;;;;;;;;2.72;100.00;102551.38;5044272;28;20312;-66
2023/01/03 05:54:02;;;;;;;;;;;;;;;2.69;100.00;102555.25;5046738;28;20019;-66
2023/01/03 05:56:29;;;;;;;;;;;;;;;2.65;100.00;102547.50;5047044;28;19927;-66
2023/01/03 05:58:54;;;;;;;;;;;;;;;2.60;100.00;102540.63;5047289;28;19943;-66
2023/01/03 06:01:19;;;;;;;;;;;;;;;2.55;100.00;102556.47;5046742;28;20575;-66
2023/01/03 06:03:46;;;;;;;;;;;;;;;2.57;100.00;102553.59;5046440;28;19924;-66
2023/01/03 06:06:12;;;;;;;;;;;;;;;2.58;100.00;102569.72;5047359;28;19920;-66
2023/01/03 06:08:37;;;;;;;;;;;;;;;2.63;100.00;102555.75;5043804;28;20000;-66
2023/01/03 06:11:06;;;;;;;;;;;;;;;2.65;100.00;102551.06;5044221;28;20318;-65
2023/01/03 06:13:31;;;;;;;;;;;;;;;2.70;100.00;102548.81;5046863;28;19924;-66
2023/01/03 06:18:47;;;;;;;;;;;;;;;2.80;100.00;102547.00;5036391;28;19947;-66
2023/01/03 06:21:13;;;;;;;;;;;;;;;2.83;100.00;102541.25;5047150;28;19917;-66
2023/01/03 06:23:38;;;;;;;;;;;;;;;2.90;100.00;102541.59;5046351;28;19924;-66
2023/01/03 06:26:03;;;;;;;;;;;;;;;2.94;100.00;102532.19;5044694;28;19925;-66
2023/01/03 06:28:28;;;;;;;;;;;;;;;3.00;100.00;102536.19;5045295;28;21496;-66
2023/01/03 06:30:54;;;;;;;;;;;;;;;3.07;100.00;102538.19;5046068;28;19921;-66
2023/01/03 06:33:19;;;;;;;;;;;;;;;3.13;100.00;102543.06;5047242;28;19924;-66
2023/01/03 06:35:44;;;;;;;;;;;;;;;3.19;100.00;102535.34;5045985;28;20035;-66
2023/01/03 06:38:09;;;;;;;;;;;;;;;3.23;100.00;102531.34;5045136;28;20480;-66
2023/01/03 06:40:34;;;;;;;;;;;;;;;3.32;100.00;102530.50;5046412;28;19925;-66
2023/01/03 06:43:00;;;;;;;;;;;;;;;3.31;100.00;102528.81;5047001;28;19924;-66
2023/01/03 06:53:39;;;;;;;;;;;;;;;3.38;100.00;102529.94;5026338;28;19967;-66
2023/01/03 06:56:05;;;;;;;;;;;;;;;3.43;100.00;102521.38;5039671;28;19928;-66
2023/01/03 06:58:30;;;;;;;;;;;;;;;3.37;100.00;102515.50;5046124;28;19929;-66
2023/01/03 07:00:57;;;;;;;;;;;;;;;3.47;100.00;102522.81;5046686;28;19917;-66
2023/01/03 07:03:23;;;;;;;;;;;;;;;3.37;100.00;102523.66;5042176;28;20008;-66
2023/01/03 07:05:48;;;;;;;;;;;;;;;3.37;100.00;102526.38;5032059;28;20015;-66
2023/01/03 07:08:13;;;;;;;;;;;;;;;3.37;100.00;102509.22;5045611;28;19916;-66
2023/01/03 07:10:38;;;;;;;;;;;;;;;3.50;100.00;102517.94;5044615;28;19983;-66
2023/01/03 07:15:48;;;;;;;;;;;;;;;3.45;100.00;102509.38;5035243;28;19928;-66
2023/01/03 07:18:13;;;;;;;;;;;;;;;3.43;100.00;102533.09;5045945;28;19928;-66
2023/01/03 07:20:40;;;;;;;;;;;;;;;3.43;100.00;102533.09;5078572;28;19917;-66
2023/01/03 07:23:05;;;;;;;;;;;;;;;3.42;100.00;102525.09;5045815;28;19963;-66
2023/01/03 07:25:30;;;;;;;;;;;;;;;3.45;100.00;102543.78;5045387;28;20283;-66
2023/01/03 07:27:55;;;;;;;;;;;;;;;3.51;100.00;102559.53;5045615;28;19924;-65
2023/01/03 07:30:21;;;;;;;;;;;;;;;3.63;100.00;102558.41;5048937;28;19982;-66
2023/01/03 07:32:46;;;;;;;;;;;;;;;3.67;100.00;102548.97;5050551;28;20483;-66
2023/01/03 07:35:11;;;;;;;;;;;;;;;3.73;100.00;102547.53;5079971;28;20269;-66
2023/01/03 07:37:36;;;;;;;;;;;;;;;3.80;100.00;102546.81;5045867;28;20031;-66
2023/01/03 07:40:02;;;;;;;;;;;;;;;3.89;100.00;102553.22;5045452;28;19955;-67
2023/01/03 07:45:11;;;;;;;;;;;;;;;3.96;100.00;102550.81;5046157;28;20382;-66
2023/01/03 07:47:36;;;;;;;;;;;;;;;4.00;100.00;102544.91;5049267;28;19921;-66
2023/01/03 07:50:01;;;;;;;;;;;;;;;4.05;100.00;102555.34;5080805;28;19939;-66
2023/01/03 07:52:27;;;;;;;;;;;;;;;4.09;100.00;102546.75;5046334;28;20058;-65
2023/01/03 07:54:52;;;;;;;;;;;;;;;4.16;100.00;102547.03;5046334;28;19951;-66
2023/01/03 07:57:17;;;;;;;;;;;;;;;4.22;100.00;102548.31;5046834;28;19920;-66
2023/01/03 07:59:42;;;;;;;;;;;;;;;4.31;100.00;102559.16;5046060;28;19927;-66
2023/01/03 08:02:07;;;;;;;;;;;;;;;4.33;100.00;102559.00;5047992;28;19970;-66
2023/01/03 08:04:32;;;;;;;;;;;;;;;4.42;100.00;102560.84;5046726;28;19920;-66
2023/01/03 08:06:58;;;;;;;;;;;;;;;4.48;100.00;102568.41;5048049;28;19970;-65
2023/01/03 08:14:51;;;;;;;;;;;;;;;4.59;100.00;102570.94;5048459;28;19955;-65
2023/01/03 08:17:16;;;;;;;;;;;;;;;4.66;100.00;102576.63;5048371;28;20334;-65
2023/01/03 08:19:41;;;;;;;;;;;;;;;4.72;100.00;102581.50;5044885;28;19928;-65
2023/01/03 08:22:06;;;;;;;;;;;;;;;4.85;100.00;102589.31;5032709;28;20385;-65
2023/01/03 08:24:31;;;;;;;;;;;;;;;4.85;100.00;102586.59;5045037;28;19921;-66
2023/01/03 08:26:56;;;;;;;;;;;;;;;4.91;100.00;102592.28;5045160;28;19960;-66
2023/01/03 08:29:22;;;;;;;;;;;;;;;4.97;100.00;102590.84;5046608;28;20019;-66
2023/01/03 08:31:51;;;;;;;;;;;;;;;5.01;100.00;102589.50;5046118;28;19917;-66
2023/01/03 08:34:17;;;;;;;;;;;;;;;5.27;100.00;102583.34;5047048;28;19920;-66
2023/01/03 08:36:45;;;;;;;;;;;;;;;5.16;100.00;102590.72;5045887;28;19916;-66
2023/01/03 08:39:12;;;;;;;;;;;;;;;5.17;100.00;102595.16;5044970;28;20042;-66
2023/01/03 08:41:40;;;;;;;;;;;;;;;5.31;100.00;102587.47;5046898;28;20063;-66
2023/01/03 08:44:07;;;;;;;;;;;;;;;5.28;100.00;102594.09;5046113;28;20228;-66
2023/01/03 08:46:32;;;;;;;;;;;;;;;5.32;100.00;102592.78;5046326;28;19928;-66
2023/01/03 08:48:58;;;;;;;;;;;;;;;5.34;100.00;102601.66;5045930;28;19923;-66
2023/01/03 08:51:25;;;;;;;;;;;;;;;5.36;100.00;102601.50;5046801;28;19964;-66
2023/01/03 08:53:50;;;;;;;;;;;;;;;5.44;100.00;102607.03;5043272;28;19951;-66
2023/01/03 08:56:17;;;;;;;;;;;;;;;5.50;100.00;102600.97;5046238;28;20322;-66
2023/01/03 08:58:42;;;;;;;;;;;;;;;5.52;100.00;102604.38;5045679;28;19924;-66
2023/01/03 09:01:10;;;;;;;;;;;;;;;5.56;100.00;102605.78;5044876;28;20275;-66
2023/01/03 09:03:35;;;;;;;;;;;;;;;5.55;100.00;102608.69;5045841;28;20382;-66
2023/01/03 09:06:01;;;;;;;;;;;;;;;5.62;100.00;102605.16;5047434;28;19921;-66
2023/01/03 09:08:28;;;;;;;;;;;;;;;5.61;100.00;102605.34;5046551;28;20007;-66
2023/01/03 09:10:53;;;;;;;;;;;;;;;5.59;100.00;102599.19;5047672;28;19927;-66
2023/01/03 09:13:18;;;;;;;;;;;;;;;5.69;100.00;102602.69;5078408;28;20015;-67
2023/01/03 09:15:43;;;;;;;;;;;;;;;5.69;100.00;102613.59;5044208;28;19908;-64
2023/01/03 09:18:09;;;;;;;;;;;;;;;5.75;100.00;102612.13;5046376;28;19928;-68
2023/01/03 09:20:34;;;;;;;;;;;;;;;5.83;100.00;102606.72;5061849;28;19927;-65
2023/01/03 09:22:59;;;;;;;;;;;;;;;5.85;100.00;102611.03;5045291;28;19938;-66
2023/01/03 09:25:24;;;;;;;;;;;;;;;5.91;100.00;102612.25;5048959;28;19964;-67
2023/01/03 09:27:50;;;;;;;;;;;;;;;6.00;100.00;102611.38;5046046;28;19955;-67
2023/01/03 09:30:15;;;;;;;;;;;;;;;6.07;100.00;102606.97;5048073;28;19965;-67
2023/01/03 09:32:40;;;;;;;;;;;;;;;6.07;100.00;102604.25;5039046;28;19921;-67
2023/01/03 09:35:06;;;;;;;;;;;;;;;6.11;100.00;102600.19;5036297;28;19978;-67
2023/01/03 09:37:31;;;;;;;;;;;;;;;6.14;100.00;102605.34;5046158;28;19921;-66
2023/01/03 09:39:57;;;;;;;;;;;;;;;6.20;100.00;102601.97;5048117;28;19932;-67
2023/01/03 09:45:10;;;;;;;;;;;;;;;6.30;100.00;102611.94;5045392;28;19973;-67
2023/01/03 09:47:36;;;;;;;;;;;;;;;6.30;100.00;102609.22;5045985;28;19917;-66
2023/01/03 09:50:02;;;;;;;;;;;;;;;6.36;100.00;102605.84;5044532;28;19943;-67
2023/01/03 10:03:42;;;;;;;;;;;;;;;6.43;100.00;102610.47;5047673;28;19928;-67
2023/01/03 10:06:26;;;;;;;;;;;;;;;6.49;100.00;102603.56;5047405;28;19920;-67
2023/01/03 10:09:00;;;;;;;;;;;;;;;6.49;100.00;102606.28;5026637;28;19975;-66
2023/01/03 10:11:44;;;;;;;;;;;;;;;6.51;100.00;102598.78;5025761;28;19925;-66
2023/01/03 10:14:09;;;;;;;;;;;;;;;6.58;100.00;102597.09;5045125;28;20341;-67
2023/01/03 10:16:37;;;;;;;;;;;;;;;6.60;100.00;102592.34;5048228;28;19913;-66
2023/01/03 10:19:09;;;;;;;;;;;;;;;6.69;100.00;102596.84;5046707;28;20011;-66
2023/01/03 10:21:34;;;;;;;;;;;;;;;6.77;100.00;102604.22;5048092;28;19935;-66
2023/01/03 10:23:59;;;;;;;;;;;;;;;6.84;100.00;102604.41;5045651;28;19921;-67
2023/01/03 10:26:25;;;;;;;;;;;;;;;6.91;100.00;102598.16;5047619;28;20480;-71
2023/01/03 10:28:51;;;;;;;;;;;;;;;7.04;100.00;102600.41;5045873;28;19956;-69
2023/01/03 10:31:16;;;;;;;;;;;;;;;7.10;100.00;102599.78;5043762;28;19975;-71
2023/01/03 10:33:44;;;;;;;;;;;;;;;7.02;100.00;102591.53;5043843;28;19929;-67
2023/01/03 10:36:10;;;;;;;;;;;;;;;7.08;100.00;102587.28;5044671;28;20027;-68
2023/01/03 10:38:36;;;;;;;;;;;;;;;7.14;100.00;102584.72;5045330;28;20004;-69
2023/01/03 10:41:02;;;;;;;;;;;;;;;7.19;100.00;102586.97;5045198;28;20330;-69
2023/01/03 10:43:30;;;;;;;;;;;;;;;7.25;100.00;102584.44;5047056;28;19935;-68
2023/01/03 10:45:57;;;;;;;;;;;;;;;7.29;100.00;102587.69;5045446;28;19982;-67
2023/01/03 10:48:22;;;;;;;;;;;;;;;7.29;100.00;102576.75;5036850;28;20424;-71
2023/01/03 10:50:49;;;;;;;;;;;;;;;7.27;100.00;102576.94;5025690;28;19956;-66
2023/01/03 10:53:16;;;;;;;;;;;;;;;7.24;100.00;102585.44;5042061;28;20038;-66
2023/01/03 10:55:46;;;;;;;;;;;;;;;7.23;100.00;102593.81;5045050;28;19923;-70
2023/01/03 10:58:14;;;;;;;;;;;;;;;7.27;100.00;102587.84;5045521;28;19920;-68
2023/01/03 11:00:41;;;;;;;;;;;;;;;7.20;100.00;102589.56;5046971;28;19923;-68
2023/01/03 11:03:10;;;;;;;;;;;;;;;7.24;100.00;102593.66;5046183;28;19924;-68
2023/01/03 11:05:35;;;;;;;;;;;;;;;7.30;100.00;102583.97;5045574;28;19923;-68
2023/01/03 11:08:02;;;;;;;;;;;;;;;7.16;100.00;102592.78;5043940;28;20431;-68
2023/01/03 11:10:37;;;;;;;;;;;;;;;7.23;100.00;102591.94;5045315;28;19929;-68
2023/01/03 11:13:20;;;;;;;;;;;;;;;7.14;100.00;102590.19;5038143;28;19929;-68
2023/01/03 11:15:45;;;;;;;;;;;;;;;7.17;100.00;102586.28;5026574;28;20425;-68
2023/01/03 11:18:17;;;;;;;;;;;;;;;7.15;100.00;102586.47;5027031;28;20004;-68
2023/01/03 11:20:48;;;;;;;;;;;;;;;7.20;100.00;102589.56;5026952;28;19918;-68
2023/01/03 11:23:30;;;;;;;;;;;;;;;7.22;100.00;102581.19;5037398;28;20418;-69
2023/01/03 11:25:58;;;;;;;;;;;;;;;7.27;100.00;102585.13;5046810;28;19921;-68
2023/01/03 11:28:42;;;;;;;;;;;;;;;7.28;100.00;102581.38;5045605;28;19921;-68
2023/01/03 11:31:14;;;;;;;;;;;;;;;7.31;100.00;102580.19;5045667;28;19925;-68
2023/01/03 11:33:58;;;;;;;;;;;;;;;7.36;100.00;102586.00;5034144;28;19920;-69
2023/01/03 11:36:39;;;;;;;;;;;;;;;7.27;100.00;102581.53;5042321;28;19917;-68
2023/01/03 11:39:18;;;;;;;;;;;;;;;7.31;100.00;102574.72;5045818;28;19928;-68
2023/01/03 11:41:43;;;;;;;;;;;;;;;7.33;100.00;102571.81;5028731;28;20020;-68
2023/01/03 11:44:17;;;;;;;;;;;;;;;7.41;100.00;102574.59;5046275;28;20003;-68
2023/01/03 11:46:49;;;;;;;;;;;;;;;7.42;100.00;102577.13;5045342;28;19974;-68
2023/01/03 11:49:19;;;;;;;;;;;;;;;7.41;100.00;102572.69;5046207;28;19924;-68
2023/01/03 11:51:44;;;;;;;;;;;;;;;7.43;100.00;102569.78;5041753;28;19925;-69
2023/01/03 11:54:30;;;;;;;;;;;;;;;7.43;100.00;102578.00;5046207;28;19923;-69
2023/01/03 11:56:58;;;;;;;;;;;;;;;7.48;100.00;102562.78;5043768;28;20063;-68
2023/01/03 11:59:51;;;;;;;;;;;;;;;7.69;100.00;102550.50;5046269;28;20009;-68
2023/01/03 12:02:55;;;;;;;;;;;;;;;7.76;100.00;102557.03;5045097;28;19966;-68
2023/01/03 12:05:32;;;;;;;;;;;;;;;7.72;100.00;102550.19;5043088;28;19917;-68
2023/01/03 12:08:09;;;;;;;;;;;;;;;7.71;100.00;102543.88;5024943;28;19970;-68
2023/01/03 12:10:49;;;;;;;;;;;;;;;7.84;100.00;102551.53;5044944;28;19943;-68
2023/01/03 12:13:14;;;;;;;;;;;;;;;7.77;100.00;102548.66;5045534;28;19928;-69
2023/01/03 12:15:43;;;;;;;;;;;;;;;7.73;100.00;102557.34;5045564;28;19917;-68
2023/01/03 12:18:15;;;;;;;;;;;;;;;7.70;100.00;102541.28;5048922;28;19943;-68
2023/01/03 12:20:43;;;;;;;;;;;;;;;7.69;100.00;102543.16;5064333;28;19920;-68
2023/01/03 12:23:15;;;;;;;;;;;;;;;7.77;100.00;102520.44;5047590;28;20094;-68
2023/01/03 12:25:43;;;;;;;;;;;;;;;7.86;100.00;102524.88;5048180;28;19917;-68
2023/01/03 12:28:13;;;;;;;;;;;;;;;7.89;100.00;102523.69;5049255;28;20299;-68
2023/01/03 12:30:50;;;;;;;;;;;;;;;7.97;100.00;102526.41;5048756;28;20001;-69
2023/01/03 12:33:25;;;;;;;;;;;;;;;8.04;100.00;102514.59;5048683;28;19920;-68
2023/01/03 12:35:55;;;;;;;;;;;;;;;8.72;100.00;102513.25;5049103;28;19956;-69
2023/01/03 12:38:23;;;;;;;;;;;;;;;8.64;100.00;102516.00;5047252;28;20401;-69
2023/01/03 12:40:55;;;;;;;;;;;;;;;8.82;100.00;102519.38;5048804;28;19925;-69
2023/01/03 12:43:30;;;;;;;;;;;;;;;8.72;100.00;102513.25;5047502;28;19921;-69
2023/01/03 12:45:59;;;;;;;;;;;;;;;8.65;100.00;102509.50;5047830;28;20348;-68
2023/01/03 12:48:39;;;;;;;;;;;;;;;8.57;100.00;102518.63;5048843;28;19916;-69
2023/01/03 12:51:05;;;;;;;;;;;;;;;8.51;100.00;102513.81;5049168;28;19917;-69
2023/01/03 12:53:36;;;;;;;;;;;;;;;8.56;100.00;102511.41;5047088;28;20231;-69
2023/01/03 12:56:20;;;;;;;;;;;;;;;8.46;100.00;102512.66;5029566;28;19925;-69
2023/01/03 12:58:53;;;;;;;;;;;;;;;8.35;100.00;102508.38;5028669;28;19933;-68
2023/01/03 13:01:36;;;;;;;;;;;;;;;8.44;100.00;102506.50;5030953;28;19924;-68
2023/01/03 13:04:07;;;;;;;;;;;;;;;8.35;100.00;102516.56;5048554;28;19928;-68
2023/01/03 13:06:34;;;;;;;;;;;;;;;8.36;100.00;102511.94;5047877;28;19917;-68
2023/01/03 13:09:04;;;;;;;;;;;;;;;8.35;100.00;102513.00;5047962;28;19940;-68
2023/01/03 13:11:36;;;;;;;;;;;;;;;8.24;100.00;102515.06;5047552;28;20046;-69
2023/01/03 13:14:14;;;;;;;;;;;;;;;8.29;100.00;102509.94;5029014;28;19921;-68
2023/01/03 13:16:41;;;;;;;;;;;;;;;8.32;100.00;102512.31;5036694;28;19917;-69
2023/01/03 13:19:19;;;;;;;;;;;;;;;8.13;100.00;102518.19;5046930;28;19921;-69
2023/01/03 13:21:53;;;;;;;;;;;;;;;8.17;100.00;102511.34;5047250;28;20321;-69
2023/01/03 13:24:36;;;;;;;;;;;;;;;8.17;100.00;102496.81;5046000;28;20463;-69
2023/01/03 13:27:21;;;;;;;;;;;;;;;8.13;100.00;102492.69;5048188;28;19921;-69
2023/01/03 13:29:49;;;;;;;;;;;;;;;8.10;100.00;102495.78;5045083;28;19928;-68
2023/01/03 13:32:16;;;;;;;;;;;;;;;8.27;100.00;102494.72;5030882;28;19928;-69
2023/01/03 13:34:42;;;;;;;;;;;;;;;8.27;100.00;102490.09;5060123;28;19920;-69
2023/01/03 13:37:07;;;;;;;;;;;;;;;8.27;100.00;102489.25;5042368;28;19951;-69
2023/01/03 13:39:35;;;;;;;;;;;;;;;8.32;100.00;102484.94;5047861;28;19982;-68
2023/01/03 13:42:00;;;;;;;;;;;;;;;8.61;100.00;102477.16;5046857;28;19916;-69
2023/01/03 13:44:25;;;;;;;;;;;;;;;8.60;100.00;102483.69;5047836;28;20020;-68
2023/01/03 13:46:51;;;;;;;;;;;;;;;8.65;99.66;102482.09;5048807;28;19928;-68
2023/01/03 13:49:21;;;;;;;;;;;;;;;8.64;99.69;102491.38;5048016;28;20343;-68
2023/01/03 13:51:50;;;;;;;;;;;;;;;8.49;99.84;102488.50;5046783;28;19928;-68
2023/01/03 13:54:16;;;;;;;;;;;;;;;8.49;100.00;102487.66;5048986;28;20325;-67
2023/01/03 13:56:41;;;;;;;;;;;;;;;8.37;100.00;102492.66;5080309;28;19916;-68
2023/01/03 13:59:06;;;;;;;;;;;;;;;8.33;100.00;102478.44;5048034;28;19917;-68
2023/01/03 14:01:56;;;;;;;;;;;;;;;8.32;100.00;102484.94;5048495;28;20071;-68